Terminal Aerodrome Forecast
Issued by NWS Glasgow, MT

Home | Current Version | Previous Version | Text Only | Print | Product List | Glossary On
Versions: 1 2 3 4 5 6 7 8 9 10 11 12 13 14 15
000
FTUS45 KGGW 251800 AAA
TAFGGW
TAF AMD
KGGW 251812Z 2518/2618 31015G25KT 2SM -RA OVC007
      TEMPO 2518/2522 5SM -SHRA OVC015
     FM260000 31010KT 5SM -SHRA OVC015
     FM260600 VRB04KT P6SM FEW040 SCT060
     FM261500 34008KT P6SM SCT017=

USA.gov is the U.S. government's official web portal to all federal, state and local government web resources and services.